createdAt,value
2023-10-09T00:01:53.250Z,23.62
2023-10-09T00:04:21.926Z,23.43
2023-10-09T00:06:49.852Z,23.48
2023-10-09T00:09:25.832Z,23.38
2023-10-09T00:12:01.683Z,23.57
2023-10-09T00:14:34.266Z,23.63
2023-10-09T00:17:22.853Z,23.47
2023-10-09T00:19:52.454Z,23.45
2023-10-09T00:22:30.824Z,23.42
2023-10-09T00:25:22.866Z,23.37
2023-10-09T00:27:49.953Z,23.69
2023-10-09T00:30:30.918Z,23.33
2023-10-09T00:33:02.533Z,23.14
2023-10-09T00:35:37.676Z,23.08
2023-10-09T00:38:27.109Z,23.27
2023-10-09T00:41:03.627Z,23.26
2023-10-09T00:43:31.713Z,23.48
2023-10-09T00:46:12.722Z,23.37
2023-10-09T00:48:41.136Z,23.24
2023-10-09T00:51:29.886Z,23.37
2023-10-09T00:54:20.763Z,23.41
2023-10-09T00:56:58.422Z,23.26
2023-10-09T00:59:27.699Z,23.49
2023-10-09T01:02:00.039Z,23.22
2023-10-09T01:04:33.491Z,23.44
2023-10-09T01:07:22.395Z,23.27
2023-10-09T01:09:52.517Z,23.15
2023-10-09T01:12:19.794Z,23.18
2023-10-09T01:14:56.718Z,23.30
2023-10-09T01:17:46.458Z,23.30
2023-10-09T01:20:18.190Z,23.21
2023-10-09T01:22:45.434Z,23.24
2023-10-09T01:25:12.729Z,23.23
2023-10-09T01:27:41.513Z,22.90
2023-10-09T01:30:15.450Z,23.04
2023-10-09T01:32:44.818Z,22.77
2023-10-09T01:35:22.311Z,22.93
2023-10-09T01:37:52.301Z,23.15
2023-10-09T01:40:36.983Z,23.18
2023-10-09T01:43:05.347Z,23.17
2023-10-09T01:45:43.316Z,23.24
2023-10-09T01:48:13.342Z,23.18
2023-10-09T01:50:43.086Z,23.23
2023-10-09T01:53:10.441Z,23.09
2023-10-09T01:55:40.955Z,22.96
2023-10-09T01:58:25.520Z,23.23
2023-10-09T02:00:56.972Z,23.02
2023-10-09T02:03:30.501Z,23.17
2023-10-09T02:06:01.289Z,22.95
2023-10-09T02:08:37.359Z,23.17
2023-10-09T02:11:04.796Z,23.02
2023-10-09T02:13:35.918Z,22.93
2023-10-09T02:16:16.360Z,22.92
2023-10-09T02:19:00.244Z,22.93
2023-10-09T02:21:41.630Z,22.93
2023-10-09T02:24:27.865Z,22.96
2023-10-09T02:26:55.258Z,22.88
2023-10-09T02:29:25.315Z,22.82
2023-10-09T02:32:02.091Z,22.83
2023-10-09T02:34:30.785Z,22.65
2023-10-09T02:37:07.220Z,22.76
2023-10-09T02:39:44.832Z,22.79
2023-10-09T02:42:14.763Z,22.77
2023-10-09T02:44:47.746Z,22.74
2023-10-09T02:47:32.016Z,22.82
2023-10-09T02:50:08.657Z,22.81
2023-10-09T02:52:41.748Z,22.92
2023-10-09T02:55:24.118Z,22.76
2023-10-09T02:57:57.479Z,23.17
2023-10-09T03:00:30.935Z,22.68
2023-10-09T03:02:59.395Z,22.49
2023-10-09T03:05:29.828Z,22.60
2023-10-09T03:07:57.658Z,22.75
2023-10-09T03:10:26.552Z,22.78
2023-10-09T03:12:57.014Z,22.81
2023-10-09T03:15:24.201Z,22.71
2023-10-09T03:17:52.925Z,22.86
2023-10-09T03:20:20.219Z,22.85
2023-10-09T03:22:48.886Z,22.88
2023-10-09T03:25:18.206Z,22.83
2023-10-09T03:27:48.871Z,22.86
2023-10-09T03:30:24.640Z,22.91
2023-10-09T03:32:54.006Z,22.77
2023-10-09T03:35:26.484Z,22.80
2023-10-09T03:38:11.150Z,22.71
2023-10-09T03:40:40.281Z,22.76
2023-10-09T03:43:07.393Z,22.75
2023-10-09T03:45:36.620Z,22.64
2023-10-09T03:48:07.372Z,22.56
2023-10-09T03:50:38.721Z,22.49
2023-10-09T03:53:09.516Z,22.64
2023-10-09T03:55:39.541Z,22.59
2023-10-09T03:58:13.226Z,22.82
2023-10-09T04:00:47.827Z,22.66
2023-10-09T04:03:16.575Z,22.82
2023-10-09T04:05:44.727Z,23.01
2023-10-09T04:08:22.266Z,22.71
2023-10-09T04:10:54.356Z,22.55
2023-10-09T04:13:24.269Z,22.66
2023-10-09T04:15:54.435Z,22.64
2023-10-09T04:18:22.214Z,22.60
2023-10-09T04:21:12.457Z,22.44
2023-10-09T04:23:59.552Z,22.30
2023-10-09T04:26:29.704Z,22.65
2023-10-09T04:28:57.253Z,22.78
2023-10-09T04:31:33.296Z,22.53
2023-10-09T04:34:18.826Z,22.47
2023-10-09T04:37:02.297Z,22.33
2023-10-09T04:39:32.777Z,22.51
2023-10-09T04:42:18.890Z,22.14
2023-10-09T04:45:05.064Z,22.63
2023-10-09T04:47:38.969Z,22.70
2023-10-09T04:50:37.022Z,22.97
2023-10-09T04:53:19.667Z,22.53
2023-10-09T04:55:55.722Z,22.71
2023-10-09T04:58:27.758Z,22.88
2023-10-09T05:00:58.699Z,22.86
2023-10-09T05:03:29.478Z,22.66
2023-10-09T05:06:00.883Z,22.72
2023-10-09T05:08:28.707Z,22.75
2023-10-09T05:11:03.774Z,22.95
2023-10-09T05:13:57.713Z,22.83
2023-10-09T05:16:27.946Z,22.69
2023-10-09T05:18:58.215Z,22.47
2023-10-09T05:21:31.875Z,22.75
2023-10-09T05:24:20.634Z,22.74
2023-10-09T05:26:51.892Z,22.99
2023-10-09T05:29:25.558Z,23.05
2023-10-09T05:32:12.366Z,22.88
2023-10-09T05:34:58.929Z,22.65
2023-10-09T05:37:35.473Z,22.66
2023-10-09T05:40:16.900Z,22.47
2023-10-09T05:42:45.300Z,22.52
2023-10-09T05:45:18.060Z,22.42
2023-10-09T05:48:28.774Z,22.37
2023-10-09T05:51:10.762Z,22.33
2023-10-09T05:53:47.023Z,22.64
2023-10-09T05:56:33.263Z,22.14
2023-10-09T05:59:18.934Z,22.24
2023-10-09T06:01:52.169Z,22.41
2023-10-09T06:04:21.070Z,22.72
2023-10-09T06:06:58.104Z,22.80
2023-10-09T06:09:51.324Z,22.59
2023-10-09T06:12:34.242Z,22.63
2023-10-09T06:15:21.179Z,22.64
2023-10-09T06:17:52.006Z,22.84
2023-10-09T06:20:38.186Z,22.71
2023-10-09T06:23:17.171Z,22.41
2023-10-09T06:25:52.464Z,22.19
2023-10-09T06:28:34.232Z,22.17
2023-10-09T06:31:24.131Z,22.21
2023-10-09T06:34:16.860Z,22.54
2023-10-09T06:36:54.568Z,22.81
2023-10-09T06:39:48.320Z,23.10
2023-10-09T06:42:38.354Z,23.04
2023-10-09T06:45:19.661Z,23.17
2023-10-09T06:47:57.665Z,23.21
2023-10-09T06:50:48.332Z,22.96
2023-10-09T06:53:16.033Z,22.83
2023-10-09T06:55:51.371Z,23.03
2023-10-09T06:58:29.312Z,23.09
2023-10-09T07:01:00.005Z,22.31
2023-10-09T07:03:31.625Z,22.83
2023-10-09T07:06:24.864Z,22.40
2023-10-09T07:09:17.090Z,21.56
2023-10-09T07:11:50.653Z,22.03
2023-10-09T07:14:32.893Z,22.28
2023-10-09T07:17:21.918Z,22.60
2023-10-09T07:19:54.954Z,21.99
2023-10-09T07:22:30.544Z,21.52
2023-10-09T07:24:59.036Z,22.39
2023-10-09T07:27:50.957Z,22.96
2023-10-09T07:30:28.823Z,23.21
2023-10-09T07:33:13.082Z,22.69
2023-10-09T07:35:48.684Z,23.12
2023-10-09T07:38:29.828Z,23.36
2023-10-09T07:41:03.766Z,23.34
2023-10-09T07:43:46.590Z,23.48
2023-10-09T07:46:39.866Z,23.62
2023-10-09T07:49:10.349Z,23.06
2023-10-09T07:51:39.732Z,22.70
2023-10-09T07:54:10.351Z,22.81
2023-10-09T07:56:42.587Z,22.91
2023-10-09T07:59:13.411Z,23.62
2023-10-09T08:02:15.069Z,23.62
2023-10-09T08:04:54.512Z,23.35
2023-10-09T08:08:06.045Z,22.70
2023-10-09T08:10:23.192Z,22.71
2023-10-09T08:12:50.494Z,22.78
2023-10-09T08:15:23.223Z,23.46
2023-10-09T08:18:21.583Z,23.87
2023-10-09T08:21:00.832Z,22.58
2023-10-09T08:23:30.742Z,22.64
2023-10-09T08:26:15.552Z,23.40
2023-10-09T08:28:44.438Z,23.59
2023-10-09T08:31:35.794Z,23.72
2023-10-09T08:36:38.471Z,23.77
2023-10-09T08:39:26.421Z,23.27
2023-10-09T08:41:55.732Z,23.70
2023-10-09T08:44:26.439Z,23.79
2023-10-09T08:46:58.594Z,24.03
2023-10-09T08:49:28.985Z,23.80
2023-10-09T08:51:57.841Z,23.66
2023-10-09T08:54:24.990Z,23.85
2023-10-09T08:56:52.316Z,23.46
2023-10-09T08:59:22.575Z,23.07
2023-10-09T09:01:53.132Z,23.00
2023-10-09T09:04:41.023Z,23.61
2023-10-09T09:07:35.162Z,23.52
2023-10-09T09:10:18.429Z,23.59
2023-10-09T09:12:46.467Z,24.11
2023-10-09T09:15:22.426Z,24.51
2023-10-09T09:17:52.187Z,24.18
2023-10-09T09:20:33.058Z,24.06
2023-10-09T09:23:02.440Z,23.45
2023-10-09T09:25:49.376Z,24.54
2023-10-09T09:28:23.189Z,24.75
2023-10-09T09:30:53.131Z,24.76
2023-10-09T09:33:28.090Z,24.85
2023-10-09T09:36:04.944Z,25.32
2023-10-09T09:38:51.578Z,24.63
2023-10-09T09:41:25.742Z,25.45
2023-10-09T09:43:58.257Z,25.72
2023-10-09T09:46:35.293Z,25.19
2023-10-09T09:49:06.854Z,25.19
2023-10-09T09:51:34.587Z,25.23
2023-10-09T09:54:03.757Z,24.41
2023-10-09T09:56:32.389Z,24.80
2023-10-09T09:59:07.752Z,25.35
2023-10-09T10:01:41.036Z,25.74
2023-10-09T10:04:21.779Z,26.62
2023-10-09T10:06:51.226Z,25.98
2023-10-09T10:09:42.749Z,26.26
2023-10-09T10:12:13.232Z,25.69
2023-10-09T10:15:00.865Z,26.13
2023-10-09T10:17:30.577Z,25.81
2023-10-09T10:20:18.556Z,26.70
2023-10-09T10:22:49.523Z,26.11
2023-10-09T10:25:37.015Z,26.94
2023-10-09T10:28:44.274Z,27.02
2023-10-09T10:31:15.080Z,26.66
2023-10-09T10:33:57.517Z,27.32
2023-10-09T10:36:26.323Z,26.60
2023-10-09T10:39:20.725Z,26.83
2023-10-09T10:41:58.832Z,27.03
2023-10-09T10:44:34.980Z,25.85
2023-10-09T10:47:02.872Z,25.74
2023-10-09T10:49:37.865Z,26.73
2023-10-09T10:52:20.046Z,27.23
2023-10-09T10:54:47.369Z,26.44
2023-10-09T10:57:38.210Z,26.58
2023-10-09T11:00:15.523Z,27.48
2023-10-09T11:02:49.554Z,26.92
2023-10-09T11:05:24.806Z,27.12
2023-10-09T11:07:58.319Z,27.31
2023-10-09T11:10:30.359Z,27.03
2023-10-09T11:13:09.465Z,27.09
2023-10-09T11:15:45.338Z,26.81
2023-10-09T11:18:28.140Z,26.28
2023-10-09T11:21:19.154Z,26.45
2023-10-09T11:23:59.462Z,26.65
2023-10-09T11:26:29.640Z,26.64
2023-10-09T11:29:33.253Z,26.93
2023-10-09T11:32:10.667Z,26.76
2023-10-09T11:34:38.828Z,26.73
2023-10-09T11:37:12.590Z,26.93
2023-10-09T11:39:54.957Z,26.83
2023-10-09T11:42:39.909Z,25.97
2023-10-09T11:45:32.824Z,26.38
2023-10-09T11:48:22.589Z,26.28
2023-10-09T11:50:56.565Z,26.35
2023-10-09T11:53:23.807Z,26.13
2023-10-09T11:55:54.634Z,26.97
2023-10-09T11:58:26.067Z,27.59
2023-10-09T12:00:58.258Z,27.21
2023-10-09T12:03:31.324Z,27.65
2023-10-09T12:06:06.905Z,27.81
2023-10-09T12:08:35.801Z,26.96
2023-10-09T12:11:05.154Z,26.83
2023-10-09T12:13:32.457Z,27.41
2023-10-09T12:16:00.042Z,27.36
2023-10-09T12:18:27.425Z,27.32
2023-10-09T12:21:03.460Z,27.29
2023-10-09T12:23:33.990Z,27.10
2023-10-09T12:26:01.195Z,28.00
2023-10-09T12:28:29.932Z,28.53
2023-10-09T12:31:02.241Z,28.00
2023-10-09T12:33:31.235Z,28.07
2023-10-09T12:36:02.114Z,28.39
2023-10-09T12:38:33.755Z,28.85
2023-10-09T12:41:19.300Z,30.24
2023-10-09T12:43:48.042Z,30.17
2023-10-09T12:46:18.221Z,29.13
2023-10-09T12:48:49.164Z,29.49
2023-10-09T12:51:19.850Z,29.48
2023-10-09T12:53:51.757Z,30.19
2023-10-09T12:56:19.606Z,30.18
2023-10-09T12:58:54.374Z,31.35
2023-10-09T13:01:22.284Z,29.55
2023-10-09T13:03:52.737Z,29.22
2023-10-09T13:06:25.333Z,30.07
2023-10-09T13:08:53.180Z,30.27
2023-10-09T13:11:20.543Z,28.57
2023-10-09T13:13:53.887Z,28.35
2023-10-09T13:16:26.182Z,30.00
2023-10-09T13:19:00.359Z,28.95
2023-10-09T13:21:33.563Z,28.68
2023-10-09T13:24:02.831Z,29.19
2023-10-09T13:26:35.091Z,29.63
2023-10-09T13:29:04.189Z,30.16
2023-10-09T13:31:36.110Z,30.29
2023-10-09T13:34:04.941Z,30.09
2023-10-09T13:36:33.041Z,30.30
2023-10-09T13:39:25.704Z,30.49
2023-10-09T13:42:02.433Z,29.35
2023-10-09T13:44:34.326Z,30.03
2023-10-09T13:47:20.201Z,29.81
2023-10-09T13:49:52.038Z,30.01
2023-10-09T13:52:19.847Z,28.99
2023-10-09T13:54:49.526Z,29.91
2023-10-09T13:57:17.141Z,29.66
2023-10-09T13:59:50.384Z,29.87
2023-10-09T14:02:19.370Z,29.92
2023-10-09T14:04:51.296Z,29.43
2023-10-09T14:07:18.485Z,29.47
2023-10-09T14:09:46.029Z,28.90
2023-10-09T14:12:15.498Z,29.00
2023-10-09T14:14:55.184Z,29.37
2023-10-09T14:17:29.943Z,29.26
2023-10-09T14:20:17.620Z,29.52
2023-10-09T14:22:46.686Z,29.20
2023-10-09T14:25:16.747Z,29.51
2023-10-09T14:27:43.970Z,29.84
2023-10-09T14:30:23.980Z,29.73
2023-10-09T14:32:56.934Z,29.29
2023-10-09T14:35:28.061Z,28.46
2023-10-09T14:37:55.248Z,28.09
2023-10-09T14:40:22.712Z,28.02
2023-10-09T14:42:55.939Z,27.82
2023-10-09T14:45:27.254Z,27.86
2023-10-09T14:47:55.732Z,28.02
2023-10-09T14:50:24.013Z,27.70
2023-10-09T14:52:52.331Z,27.80
2023-10-09T14:55:22.551Z,28.11
2023-10-09T14:57:53.707Z,28.23
2023-10-09T15:00:24.867Z,28.38
2023-10-09T15:02:53.702Z,28.47
2023-10-09T15:05:23.933Z,28.68
2023-10-09T15:07:53.341Z,28.04
2023-10-09T15:10:20.596Z,27.54
2023-10-09T15:12:51.016Z,27.45
2023-10-09T15:15:19.403Z,27.91
2023-10-09T15:17:49.917Z,27.70
2023-10-09T15:20:18.120Z,28.07
2023-10-09T15:22:47.225Z,28.58
2023-10-09T15:25:15.739Z,27.67
2023-10-09T15:27:44.524Z,27.96
2023-10-09T15:30:15.060Z,27.54
2023-10-09T15:32:43.312Z,27.76
2023-10-09T15:35:11.270Z,27.28
2023-10-09T15:37:38.771Z,28.02
2023-10-09T15:40:20.178Z,27.78
2023-10-09T15:42:50.946Z,27.32
2023-10-09T15:45:22.942Z,28.04
2023-10-09T15:47:52.412Z,28.02
2023-10-09T15:50:20.842Z,27.84
2023-10-09T15:52:50.512Z,27.53
2023-10-09T15:55:22.043Z,26.91
2023-10-09T15:57:49.972Z,26.51
2023-10-09T16:00:20.532Z,26.71
2023-10-09T16:02:49.985Z,26.96
2023-10-09T16:05:18.074Z,26.41
2023-10-09T16:07:45.756Z,26.92
2023-10-09T16:10:13.444Z,27.02
2023-10-09T16:12:43.088Z,27.32
2023-10-09T16:15:11.509Z,27.65
2023-10-09T16:17:38.705Z,27.81
2023-10-09T16:20:14.857Z,27.76
2023-10-09T16:22:42.260Z,27.33
2023-10-09T16:25:14.621Z,27.41
2023-10-09T16:27:47.773Z,28.07
2023-10-09T16:30:22.458Z,28.31
2023-10-09T16:32:51.838Z,28.17
2023-10-09T16:35:23.394Z,27.60
2023-10-09T16:37:51.963Z,27.64
2023-10-09T16:40:21.868Z,27.74
2023-10-09T16:42:54.613Z,27.89
2023-10-09T16:45:22.077Z,27.49
2023-10-09T16:47:52.608Z,27.85
2023-10-09T16:50:26.846Z,27.78
2023-10-09T16:52:54.059Z,27.72
2023-10-09T16:55:21.925Z,27.51
2023-10-09T16:57:49.435Z,27.64
2023-10-09T17:00:36.054Z,27.61
2023-10-09T17:03:10.857Z,27.49
2023-10-09T17:05:52.354Z,27.46
2023-10-09T17:08:20.761Z,27.36
2023-10-09T17:10:52.150Z,26.97
2023-10-09T17:13:25.328Z,27.33
2023-10-09T17:15:54.397Z,27.37
2023-10-09T17:18:23.313Z,27.55
2023-10-09T17:20:50.336Z,27.02
2023-10-09T17:23:17.739Z,26.71
2023-10-09T17:25:47.989Z,26.92
2023-10-09T17:28:18.584Z,27.11
2023-10-09T17:30:49.783Z,27.40
2023-10-09T17:33:20.570Z,27.38
2023-10-09T17:35:49.077Z,27.10
2023-10-09T17:38:19.515Z,27.07
2023-10-09T17:40:54.252Z,27.12
2023-10-09T17:43:21.942Z,26.91
2023-10-09T17:45:53.941Z,26.75
2023-10-09T17:48:23.190Z,26.75
2023-10-09T17:50:51.416Z,26.70
2023-10-09T17:53:19.148Z,26.85
2023-10-09T17:55:47.736Z,26.96
2023-10-09T17:58:15.006Z,26.95
2023-10-09T18:00:44.197Z,27.12
2023-10-09T18:03:16.303Z,26.99
2023-10-09T18:05:46.008Z,26.73
2023-10-09T18:08:16.226Z,26.69
2023-10-09T18:10:44.721Z,26.33
2023-10-09T18:13:18.372Z,26.30
2023-10-09T18:15:46.482Z,26.56
2023-10-09T18:18:20.810Z,26.86
2023-10-09T18:20:50.534Z,26.75
2023-10-09T18:23:20.660Z,26.51
2023-10-09T18:25:50.999Z,26.63
2023-10-09T18:28:18.835Z,26.55
2023-10-09T18:30:50.386Z,26.39
2023-10-09T18:33:17.973Z,26.05
2023-10-09T18:35:45.266Z,25.81
2023-10-09T18:38:17.403Z,25.90
2023-10-09T18:40:50.848Z,26.26
2023-10-09T18:43:20.767Z,26.28
2023-10-09T18:45:47.848Z,26.55
2023-10-09T18:48:19.359Z,26.51
2023-10-09T18:50:46.547Z,26.71
2023-10-09T18:53:14.433Z,26.50
2023-10-09T18:55:41.989Z,26.53
2023-10-09T18:58:13.615Z,26.04
2023-10-09T19:00:50.146Z,26.10
2023-10-09T19:03:21.785Z,25.89
2023-10-09T19:05:48.989Z,25.81
2023-10-09T19:08:19.685Z,25.81
2023-10-09T19:10:47.441Z,25.89
2023-10-09T19:13:17.010Z,25.95
2023-10-09T19:15:51.655Z,26.30
2023-10-09T19:18:20.398Z,26.14
2023-10-09T19:20:47.899Z,25.97
2023-10-09T19:23:15.010Z,25.77
2023-10-09T19:25:45.293Z,26.20
2023-10-09T19:28:13.419Z,25.83
2023-10-09T19:30:40.625Z,25.95
2023-10-09T19:33:07.715Z,25.93
2023-10-09T19:35:35.300Z,25.72
2023-10-09T19:38:02.453Z,25.85
2023-10-09T19:40:31.514Z,25.91
2023-10-09T19:42:59.925Z,26.17
2023-10-09T19:45:31.306Z,26.12
2023-10-09T19:47:59.085Z,26.27
2023-10-09T19:50:26.548Z,26.14
2023-10-09T19:52:53.800Z,26.13
2023-10-09T19:55:23.067Z,25.91
2023-10-09T19:57:52.528Z,25.81
2023-10-09T20:00:23.465Z,25.68
2023-10-09T20:02:54.751Z,26.17
2023-10-09T20:05:24.204Z,26.04
2023-10-09T20:07:51.647Z,25.94
2023-10-09T20:10:19.713Z,26.15
2023-10-09T20:12:47.401Z,26.20
2023-10-09T20:15:15.148Z,26.13
2023-10-09T20:17:45.378Z,25.96
2023-10-09T20:20:12.960Z,25.69
2023-10-09T20:22:40.780Z,25.67
2023-10-09T20:25:14.313Z,25.61
2023-10-09T20:27:43.405Z,25.62
2023-10-09T20:30:14.988Z,25.35
2023-10-09T20:32:43.003Z,25.62
2023-10-09T20:35:13.586Z,25.64
2023-10-09T20:37:42.354Z,25.76
2023-10-09T20:40:18.941Z,25.91
2023-10-09T20:42:52.681Z,25.77
2023-10-09T20:45:20.006Z,25.81
2023-10-09T20:47:55.928Z,26.00
2023-10-09T20:50:23.726Z,25.98
2023-10-09T20:52:52.047Z,25.96
2023-10-09T20:55:25.520Z,26.04
2023-10-09T20:57:59.093Z,25.69
2023-10-09T21:00:28.143Z,25.51
2023-10-09T21:02:56.465Z,25.16
2023-10-09T21:05:24.699Z,25.23
2023-10-09T21:07:54.522Z,25.38
2023-10-09T21:10:22.691Z,25.39
2023-10-09T21:12:51.088Z,25.40
2023-10-09T21:15:22.222Z,25.28
2023-10-09T21:17:53.701Z,25.34
2023-10-09T21:20:21.347Z,25.53
2023-10-09T21:22:56.422Z,25.54
2023-10-09T21:25:25.650Z,25.40
2023-10-09T21:27:55.683Z,25.42
2023-10-09T21:30:27.939Z,25.40
2023-10-09T21:32:55.613Z,25.29
2023-10-09T21:35:28.560Z,25.30
2023-10-09T21:38:01.115Z,25.38
2023-10-09T21:40:30.671Z,25.23
2023-10-09T21:43:07.838Z,25.32
2023-10-09T21:45:45.830Z,25.17
2023-10-09T21:48:13.371Z,24.89
2023-10-09T21:50:42.581Z,24.90
2023-10-09T21:53:09.702Z,24.94
2023-10-09T21:55:37.101Z,25.12
2023-10-09T21:58:08.384Z,25.03
2023-10-09T22:00:37.368Z,24.99
2023-10-09T22:03:11.625Z,25.12
2023-10-09T22:05:43.048Z,25.01
2023-10-09T22:08:12.295Z,24.87
2023-10-09T22:10:41.304Z,24.60
2023-10-09T22:13:09.014Z,24.51
2023-10-09T22:15:36.217Z,24.44
2023-10-09T22:18:15.465Z,24.30
2023-10-09T22:20:47.733Z,24.11
2023-10-09T22:23:19.433Z,24.18
2023-10-09T22:25:57.374Z,24.51
2023-10-09T22:28:25.472Z,24.38
2023-10-09T22:30:56.887Z,24.47
2023-10-09T22:33:26.233Z,24.77
2023-10-09T22:35:56.503Z,24.59
2023-10-09T22:38:23.623Z,24.57
2023-10-09T22:40:52.554Z,24.60
2023-10-09T22:43:25.285Z,24.49
2023-10-09T22:45:53.677Z,24.43
2023-10-09T22:48:27.984Z,24.26
2023-10-09T22:50:59.798Z,24.17
2023-10-09T22:53:47.907Z,24.16
2023-10-09T22:56:17.408Z,24.16
2023-10-09T22:58:53.396Z,24.24
2023-10-09T23:01:25.009Z,24.39
2023-10-09T23:04:16.419Z,24.44
2023-10-09T23:06:47.117Z,24.36
2023-10-09T23:09:17.557Z,24.39
2023-10-09T23:11:55.547Z,24.31
2023-10-09T23:14:29.073Z,24.15
2023-10-09T23:17:00.419Z,24.39
2023-10-09T23:19:44.920Z,24.27
2023-10-09T23:22:20.116Z,24.45
2023-10-09T23:24:53.227Z,24.39
2023-10-09T23:27:46.062Z,24.58
2023-10-09T23:30:23.909Z,24.44
2023-10-09T23:33:10.955Z,24.22
2023-10-09T23:35:52.543Z,23.98
2023-10-09T23:38:32.813Z,23.99
2023-10-09T23:41:11.705Z,24.07
2023-10-09T23:43:48.351Z,24.18
2023-10-09T23:46:19.078Z,24.13
2023-10-09T23:48:49.860Z,24.06
2023-10-09T23:51:20.011Z,23.66
2023-10-09T23:53:53.951Z,23.96
2023-10-09T23:56:43.906Z,23.77
2023-10-09T23:59:14.031Z,23.86
